ADDS METAR Data INFO
IDs: Format: Raw Decoded Include TAF

Data at: 0028 UTC 17 Dec 2017

KVBT 162356Z AUTO 17005KT 10SM CLR 09/M03 A3004 RMK AO2 SLP179 T00941028 10139 20094 50006
KVBT 162256Z AUTO 17006KT 10SM CLR 11/M03 A3004 RMK AO2 SLP181 T01111033
KVBT 162156Z AUTO 19009KT 10SM CLR 12/M03 A3003 RMK AO2 SLP176 T01171033
KVBT 162120Z AUTO 21013KT 10SM CLR 12/M04 A3002 RMK AO2
KVBT 162110Z AUTO 20012G17KT 1 1/2SM HZ CLR 13/M04 A3002 RMK AO2 VIS 1/4V5
KVBT 162056Z AUTO 21018G22KT 9SM CLR 13/M06 A3002 RMK AO2 SLP172 T01281056 55018
KVBT 162027Z AUTO 20012G19KT 3SM HZ CLR 13/M04 A3001 RMK AO2
KVBT 162020Z AUTO 20013G19KT 1 3/4SM HZ CLR 14/M04 A3002 RMK AO2 VIS 3/4V5
KVBT 161956Z AUTO 21011G20KT 10SM CLR 13/M04 A3001 RMK AO2 SLP168 T01331044
KVBT 161856Z AUTO 23015G19KT 8SM CLR 13/M03 A3004 RMK AO2 SLP178 T01281033
KVBT 161756Z AUTO 22014G19KT 8SM CLR 12/M03 A3007 RMK AO2 SLP191 T01171033 10117 20011 58007
KVBT 161656Z AUTO 23010KT 10SM CLR 09/M03 A3010 RMK AO2 SLP200 T00941033
KVBT 161556Z AUTO 21011KT 10SM CLR 08/M03 A3010 RMK AO2 SLP203 T00781033
KVBT 161456Z AUTO 19007KT 10SM CLR 04/M04 A3009 RMK AO2 SLP201 T00441039 51011
KVBT 161356Z AUTO 18007KT 10SM CLR 02/M05 A3009 RMK AO2 SLP200 T00171050 FZRANO
KVBT 161256Z AUTO 19008KT 10SM CLR 02/M05 A3007 RMK AO2 SLP195 T00171050 FZRANO
KVBT 161156Z AUTO 19005KT 10SM CLR 02/M05 A3006 RMK AO2 SLP190 T00221050 10022 20000 55008 FZRANO
KVBT 161056Z AUTO 19007KT 10SM CLR 02/M05 A3006 RMK AO2 SLP189 T00171050 FZRANO
KVBT 160956Z AUTO 20004KT 10SM CLR 01/M05 A3007 RMK AO2 SLP194 T00061050 FZRANO
KVBT 160856Z AUTO 22003KT 10SM CLR 00/M05 A3009 RMK AO2 SLP199 T00001050 56009 FZRANO
KVBT 160756Z AUTO 19005KT 10SM CLR 02/M04 A3009 RMK AO2 SLP198 T00171044 FZRANO
KVBT 160656Z AUTO 19008KT 10SM CLR 02/M04 A3008 RMK AO2 SLP196 T00171039 FZRANO
KVBT 160556Z AUTO 19005KT 10SM CLR 01/M04 A3012 RMK AO2 SLP209 T00061039 10039 20000 400781028 58003 FZRANO TSNO
KVBT 160456Z AUTO 18004KT 10SM CLR 00/M04 A3013 RMK AO2 SLP215 T00001039 FZRANO
KVBT 160356Z AUTO 19004KT 10SM CLR 01/M04 A3013 RMK AO2 SLP215 T00061039 FZRANO TSNO
KVBT 160256Z AUTO 20005KT 10SM CLR 02/M03 A3013 RMK AO2 SLP214 T00221033 58006 FZRANO
KVBT 160156Z AUTO 19007KT 10SM CLR 03/M04 A3012 RMK AO2 SLP212 T00281039
KVBT 160056Z AUTO 21005KT 10SM CLR 03/M04 A3015 RMK AO2 SLP222 T00281039
KVBT 152356Z AUTO 24004KT 10SM CLR 04/M03 A3014 RMK AO2 SLP220 T00391033 10078 20039 55005
KVBT 152256Z AUTO 24004KT 8SM CLR 06/M03 A3014 RMK AO2 SLP217 T00561033
KVBT 152156Z AUTO 26006KT 6SM HZ CLR 07/M03 A3015 RMK AO2 SLP219 T00721033
KVBT 152056Z AUTO 27007KT 4SM HZ FEW042 07/M03 A3016 RMK AO2 SLP224 T00721033 56012
KVBT 151956Z AUTO 28009KT 10SM FEW037 07/M03 A3016 RMK AO2 SLP225 T00721033
KVBT 151856Z AUTO 31009KT 290V350 10SM FEW029 07/M02 A3018 RMK AO2 SLP232 T00721022 TSNO
KVBT 151756Z AUTO 25009KT 4SM HZ CLR 06/M01 A3020 RMK AO2 SLP237 T00611011 10061 21017 58009
KVBT 151656Z AUTO VRB04KT 10SM FEW018 04/M01 A3023 RMK AO2 SLP249 T00441006
KVBT 151556Z AUTO 32007KT 10SM CLR 03/00 A3023 RMK AO2 SLP250 T00330000
KVBT 151456Z AUTO 29003KT 10SM CLR 01/M02 A3022 RMK AO2 SLP248 T00111017 51014 FZRANO
KVBT 151356Z AUTO 00000KT 9SM CLR M01/M03 A3021 RMK AO2 SLP246 T10111033 FZRANO
KVBT 151256Z AUTO 00000KT 9SM FEW029 M01/M03 A3019 RMK AO2 SLP238 T10111033 FZRANO